createdAt,value
2023-09-19T00:02:22.867Z,2.20
2023-09-19T00:04:51.244Z,2.55
2023-09-19T00:07:18.726Z,3.20
2023-09-19T00:09:45.560Z,2.70
2023-09-19T00:12:14.634Z,1.80
2023-09-19T00:14:41.470Z,2.00
2023-09-19T00:17:08.860Z,2.92
2023-09-19T00:19:35.771Z,3.05
2023-09-19T00:22:02.500Z,2.42
2023-09-19T00:24:29.489Z,2.53
2023-09-19T00:27:00.689Z,2.80
2023-09-19T00:29:30.318Z,2.40
2023-09-19T00:31:58.515Z,2.85
2023-09-19T00:34:25.356Z,2.55
2023-09-19T00:36:54.171Z,3.25
2023-09-19T00:39:21.522Z,2.60
2023-09-19T00:41:48.782Z,3.08
2023-09-19T00:44:17.033Z,2.90
2023-09-19T00:46:43.995Z,3.00
2023-09-19T00:49:10.939Z,3.05
2023-09-19T00:51:37.846Z,2.50
2023-09-19T00:54:05.592Z,2.63
2023-09-19T00:56:32.919Z,3.25
2023-09-19T00:58:59.672Z,3.15
2023-09-19T01:01:26.568Z,2.83
2023-09-19T01:03:53.571Z,2.80
2023-09-19T01:06:20.493Z,2.80
2023-09-19T01:08:47.227Z,2.72
2023-09-19T01:11:14.102Z,2.63
2023-09-19T01:13:41.343Z,2.63
2023-09-19T01:16:08.523Z,2.95
2023-09-19T01:18:35.653Z,2.50
2023-09-19T01:21:02.387Z,2.83
2023-09-19T01:23:29.135Z,2.80
2023-09-19T01:25:56.071Z,3.03
2023-09-19T01:28:23.063Z,3.00
2023-09-19T01:30:52.487Z,2.90
2023-09-19T01:33:19.313Z,3.25
2023-09-19T01:35:46.491Z,2.90
2023-09-19T01:38:13.253Z,3.53
2023-09-19T01:40:40.040Z,3.13
2023-09-19T01:43:07.004Z,3.22
2023-09-19T01:45:34.260Z,3.58
2023-09-19T01:48:01.028Z,3.00
2023-09-19T01:50:27.862Z,2.95
2023-09-19T01:52:54.955Z,3.47
2023-09-19T01:55:21.866Z,3.30
2023-09-19T01:57:48.618Z,2.80
2023-09-19T02:00:15.372Z,3.08
2023-09-19T02:02:42.162Z,3.13
2023-09-19T02:05:09.022Z,3.40
2023-09-19T02:07:39.128Z,2.60
2023-09-19T02:10:06.982Z,2.88
2023-09-19T02:12:36.814Z,3.45
2023-09-19T02:15:03.893Z,3.40
2023-09-19T02:17:32.206Z,3.55
2023-09-19T02:19:59.991Z,3.00
2023-09-19T02:22:27.142Z,2.83
2023-09-19T02:24:54.905Z,3.15
2023-09-19T02:27:21.637Z,3.10
2023-09-19T02:29:50.721Z,3.00
2023-09-19T02:32:19.587Z,2.90
2023-09-19T02:34:48.404Z,3.70
2023-09-19T02:37:17.346Z,3.38
2023-09-19T02:39:44.971Z,2.90
2023-09-19T02:42:12.708Z,3.28
2023-09-19T02:44:39.485Z,3.80
2023-09-19T02:47:06.390Z,3.42
2023-09-19T02:49:33.934Z,3.03
2023-09-19T02:52:00.840Z,3.15
2023-09-19T02:54:27.844Z,3.72
2023-09-19T02:56:55.027Z,3.00
2023-09-19T02:59:21.822Z,3.20
2023-09-19T03:01:49.362Z,3.10
2023-09-19T03:04:20.987Z,3.20
2023-09-19T03:06:50.113Z,3.17
2023-09-19T03:09:17.219Z,2.88
2023-09-19T03:11:45.471Z,3.35
2023-09-19T03:14:13.972Z,2.72
2023-09-19T03:16:41.208Z,3.03
2023-09-19T03:19:08.404Z,2.75
2023-09-19T03:21:36.102Z,2.90
2023-09-19T03:24:03.466Z,3.03
2023-09-19T03:26:30.231Z,3.20
2023-09-19T03:28:57.571Z,3.22
2023-09-19T03:31:24.565Z,3.08
2023-09-19T03:33:51.488Z,3.13
2023-09-19T03:36:18.262Z,2.83
2023-09-19T03:38:45.089Z,2.80
2023-09-19T03:41:15.576Z,2.70
2023-09-19T03:43:43.295Z,2.72
2023-09-19T03:46:11.059Z,2.97
2023-09-19T03:48:39.696Z,2.90
2023-09-19T03:51:06.482Z,3.22
2023-09-19T03:53:33.547Z,3.10
2023-09-19T03:56:01.310Z,4.13
2023-09-19T03:58:30.124Z,2.58
2023-09-19T04:00:56.986Z,2.70
2023-09-19T04:03:24.260Z,2.42
2023-09-19T04:05:51.327Z,2.53
2023-09-19T04:08:18.102Z,2.53
2023-09-19T04:10:45.150Z,3.25
2023-09-19T04:13:11.971Z,3.50
2023-09-19T04:15:38.769Z,3.15
2023-09-19T04:18:05.627Z,2.80
2023-09-19T04:20:33.186Z,2.72
2023-09-19T04:23:01.058Z,2.47
2023-09-19T04:25:29.003Z,2.88
2023-09-19T04:27:56.178Z,4.13
2023-09-19T04:30:22.957Z,2.78
2023-09-19T04:32:52.415Z,3.67
2023-09-19T04:35:19.604Z,2.97
2023-09-19T04:37:46.376Z,2.63
2023-09-19T04:40:14.021Z,2.85
2023-09-19T04:42:41.445Z,3.08
2023-09-19T04:45:08.524Z,2.75
2023-09-19T04:47:35.323Z,3.08
2023-09-19T04:50:02.319Z,2.88
2023-09-19T04:52:29.138Z,2.50
2023-09-19T04:54:56.048Z,3.53
2023-09-19T04:57:22.907Z,3.40
2023-09-19T04:59:49.609Z,3.25
2023-09-19T05:02:16.420Z,2.95
2023-09-19T05:04:43.268Z,3.10
2023-09-19T05:07:10.009Z,2.97
2023-09-19T05:09:38.398Z,3.17
2023-09-19T05:12:05.205Z,2.90
2023-09-19T05:14:31.897Z,3.10
2023-09-19T05:16:58.751Z,4.22
2023-09-19T05:19:25.557Z,2.40
2023-09-19T05:21:52.284Z,3.20
2023-09-19T05:24:19.040Z,3.22
2023-09-19T05:26:46.817Z,2.83
2023-09-19T05:29:13.956Z,3.03
2023-09-19T05:31:42.466Z,3.00
2023-09-19T05:34:09.271Z,3.05
2023-09-19T05:36:36.029Z,3.25
2023-09-19T05:39:02.891Z,2.90
2023-09-19T05:41:29.674Z,3.20
2023-09-19T05:43:56.407Z,2.88
2023-09-19T05:46:23.436Z,2.53
2023-09-19T05:48:51.148Z,2.95
2023-09-19T05:51:19.183Z,3.33
2023-09-19T05:53:45.912Z,3.15
2023-09-19T05:56:14.874Z,2.63
2023-09-19T05:58:44.050Z,2.25
2023-09-19T06:01:10.897Z,3.05
2023-09-19T06:03:37.806Z,2.63
2023-09-19T06:06:05.352Z,2.70
2023-09-19T06:08:32.459Z,2.90
2023-09-19T06:10:59.309Z,2.95
2023-09-19T06:13:27.920Z,2.70
2023-09-19T06:15:55.225Z,2.05
2023-09-19T06:18:22.130Z,2.60
2023-09-19T06:20:49.673Z,2.20
2023-09-19T06:23:16.432Z,2.05
2023-09-19T06:25:44.507Z,1.90
2023-09-19T06:28:13.536Z,2.10
2023-09-19T06:30:43.835Z,2.47
2023-09-19T06:33:12.935Z,1.90
2023-09-19T06:35:39.960Z,1.65
2023-09-19T06:38:07.016Z,1.70
2023-09-19T06:40:33.870Z,1.75
2023-09-19T06:43:03.513Z,1.67
2023-09-19T06:45:30.388Z,1.75
2023-09-19T06:48:04.979Z,1.88
2023-09-19T06:50:31.970Z,2.20
2023-09-19T06:53:00.732Z,1.73
2023-09-19T06:55:33.764Z,1.65
2023-09-19T06:58:00.912Z,1.40
2023-09-19T07:00:29.458Z,1.80
2023-09-19T07:02:56.505Z,1.83
2023-09-19T07:05:23.376Z,2.53
2023-09-19T07:07:50.584Z,1.73
2023-09-19T07:10:17.649Z,1.90
2023-09-19T07:12:44.911Z,1.85
2023-09-19T07:15:11.654Z,2.67
2023-09-19T07:17:38.465Z,2.45
2023-09-19T07:20:11.768Z,2.05
2023-09-19T07:22:40.857Z,1.90
2023-09-19T07:25:07.654Z,1.80
2023-09-19T07:27:34.854Z,1.92
2023-09-19T07:30:01.574Z,1.95
2023-09-19T07:32:28.524Z,2.10
2023-09-19T07:34:56.560Z,2.13
2023-09-19T07:37:23.406Z,2.05
2023-09-19T07:39:50.758Z,1.90
2023-09-19T07:42:19.092Z,2.00
2023-09-19T07:44:48.568Z,2.40
2023-09-19T07:47:15.594Z,2.22
2023-09-19T07:49:43.644Z,2.63
2023-09-19T07:52:11.333Z,2.45
2023-09-19T07:54:39.914Z,2.75
2023-09-19T07:57:06.771Z,2.55
2023-09-19T07:59:34.003Z,2.30
2023-09-19T08:02:02.153Z,3.05
2023-09-19T08:04:29.542Z,2.88
2023-09-19T08:06:57.270Z,3.25
2023-09-19T08:09:26.072Z,3.20
2023-09-19T08:11:53.114Z,2.60
2023-09-19T08:14:19.921Z,3.30
2023-09-19T08:16:46.914Z,3.83
2023-09-19T08:19:13.743Z,3.42
2023-09-19T08:21:40.599Z,3.25
2023-09-19T08:24:07.408Z,3.58
2023-09-19T08:26:34.351Z,3.60
2023-09-19T08:29:06.801Z,4.15
2023-09-19T08:31:34.917Z,4.43
2023-09-19T08:34:01.839Z,3.67
2023-09-19T08:36:28.790Z,4.72
2023-09-19T08:38:55.611Z,4.82
2023-09-19T08:41:22.381Z,4.70
2023-09-19T08:43:50.099Z,4.95
2023-09-19T08:46:18.295Z,5.07
2023-09-19T08:48:45.134Z,4.07
2023-09-19T08:51:11.890Z,5.30
2023-09-19T08:53:39.470Z,4.32
2023-09-19T08:56:06.509Z,4.22
2023-09-19T08:58:34.836Z,5.20
2023-09-19T09:01:02.701Z,5.05
2023-09-19T09:03:29.557Z,4.80
2023-09-19T09:05:57.689Z,4.47
2023-09-19T09:08:24.410Z,4.82
2023-09-19T09:10:51.477Z,4.53
2023-09-19T09:13:18.178Z,5.22
2023-09-19T09:15:45.969Z,4.65
2023-09-19T09:18:13.107Z,5.05
2023-09-19T09:20:40.026Z,5.10
2023-09-19T09:23:07.455Z,4.65
2023-09-19T09:25:34.300Z,4.82
2023-09-19T09:28:04.186Z,4.50
2023-09-19T09:30:30.903Z,5.13
2023-09-19T09:35:28.965Z,5.45
2023-09-19T09:37:57.497Z,4.38
2023-09-19T09:40:37.306Z,4.93
2023-09-19T09:43:04.628Z,4.72
2023-09-19T09:45:34.544Z,4.93
2023-09-19T09:48:04.643Z,5.20
2023-09-19T09:50:51.755Z,4.88
2023-09-19T09:53:20.548Z,5.60
2023-09-19T09:55:47.325Z,4.68
2023-09-19T09:58:14.505Z,5.22
2023-09-19T10:00:43.462Z,4.68
2023-09-19T10:03:12.101Z,6.05
2023-09-19T10:05:45.097Z,5.40
2023-09-19T10:08:13.817Z,5.47
2023-09-19T10:10:43.530Z,5.30
2023-09-19T10:13:14.879Z,5.13
2023-09-19T10:15:43.846Z,6.50
2023-09-19T10:18:10.687Z,5.97
2023-09-19T10:20:39.338Z,6.13
2023-09-19T10:23:10.504Z,5.78
2023-09-19T10:25:38.103Z,5.45
2023-09-19T10:28:12.839Z,6.40
2023-09-19T10:30:46.047Z,6.47
2023-09-19T10:33:13.274Z,6.45
2023-09-19T10:35:41.735Z,6.43
2023-09-19T10:38:10.114Z,6.32
2023-09-19T10:40:37.286Z,6.28
2023-09-19T10:43:05.219Z,6.65
2023-09-19T10:45:32.810Z,5.97
2023-09-19T10:47:59.686Z,5.97
2023-09-19T10:50:27.339Z,6.15
2023-09-19T10:52:59.542Z,6.35
2023-09-19T10:55:26.474Z,5.50
2023-09-19T10:57:53.309Z,5.88
2023-09-19T11:00:28.375Z,5.85
2023-09-19T11:05:22.063Z,5.22
2023-09-19T11:07:48.849Z,5.47
2023-09-19T11:10:17.602Z,5.75
2023-09-19T11:12:46.856Z,5.20
2023-09-19T11:15:14.580Z,5.03
2023-09-19T11:17:48.104Z,4.82
2023-09-19T11:20:16.025Z,4.97
2023-09-19T11:22:42.960Z,4.80
2023-09-19T11:25:11.233Z,4.72
2023-09-19T11:27:38.672Z,4.75
2023-09-19T11:30:09.766Z,4.55
2023-09-19T11:32:36.580Z,4.90
2023-09-19T11:35:05.216Z,5.25
2023-09-19T11:37:34.039Z,5.20
2023-09-19T11:40:00.857Z,4.82
2023-09-19T11:42:28.312Z,4.68
2023-09-19T11:44:57.120Z,4.97
2023-09-19T11:47:26.145Z,4.75
2023-09-19T11:49:54.349Z,4.70
2023-09-19T11:52:23.600Z,5.03
2023-09-19T11:54:52.932Z,4.88
2023-09-19T11:57:20.401Z,4.75
2023-09-19T11:59:49.233Z,4.97
2023-09-19T12:02:16.008Z,4.80
2023-09-19T12:04:44.718Z,5.10
2023-09-19T12:07:12.065Z,4.82
2023-09-19T12:09:38.823Z,4.32
2023-09-19T12:12:05.644Z,4.40
2023-09-19T12:14:32.668Z,4.53
2023-09-19T12:17:01.837Z,4.90
2023-09-19T12:19:30.290Z,5.10
2023-09-19T12:21:59.302Z,4.68
2023-09-19T12:24:30.960Z,4.47
2023-09-19T12:26:58.166Z,4.63
2023-09-19T12:29:25.423Z,4.72
2023-09-19T12:31:52.233Z,3.92
2023-09-19T12:34:20.864Z,3.47
2023-09-19T12:36:48.193Z,3.85
2023-09-19T12:39:15.097Z,3.58
2023-09-19T12:41:43.085Z,3.85
2023-09-19T12:44:10.742Z,3.78
2023-09-19T12:46:37.627Z,3.58
2023-09-19T12:49:04.451Z,3.50
2023-09-19T12:51:31.251Z,3.80
2023-09-19T12:53:57.950Z,3.75
2023-09-19T12:56:25.379Z,3.70
2023-09-19T12:58:52.180Z,3.40
2023-09-19T13:01:19.165Z,4.32
2023-09-19T13:03:46.616Z,4.32
2023-09-19T13:06:14.179Z,4.43
2023-09-19T13:08:43.162Z,3.90
2023-09-19T13:11:16.193Z,3.95
2023-09-19T13:13:44.485Z,3.45
2023-09-19T13:16:15.978Z,4.00
2023-09-19T13:18:43.989Z,4.03
2023-09-19T13:21:16.659Z,4.20
2023-09-19T13:23:44.617Z,3.85
2023-09-19T13:26:11.583Z,4.13
2023-09-19T13:28:38.406Z,3.50
2023-09-19T13:31:05.403Z,4.32
2023-09-19T13:33:33.598Z,3.70
2023-09-19T13:36:00.447Z,4.28
2023-09-19T13:38:27.281Z,3.78
2023-09-19T13:40:54.061Z,3.70
2023-09-19T13:43:23.275Z,3.53
2023-09-19T13:45:51.368Z,4.05
2023-09-19T13:48:21.564Z,4.20
2023-09-19T13:50:49.030Z,3.67
2023-09-19T13:53:15.921Z,3.75
2023-09-19T13:55:43.037Z,3.92
2023-09-19T13:58:12.067Z,3.50
2023-09-19T14:00:39.701Z,3.70
2023-09-19T14:03:06.704Z,3.58
2023-09-19T14:05:34.001Z,3.00
2023-09-19T14:08:01.143Z,3.35
2023-09-19T14:10:28.958Z,3.47
2023-09-19T14:12:55.768Z,3.63
2023-09-19T14:15:30.419Z,2.83
2023-09-19T14:17:57.553Z,3.05
2023-09-19T14:20:24.484Z,2.80
2023-09-19T14:22:51.894Z,3.15
2023-09-19T14:25:18.665Z,2.50
2023-09-19T14:27:45.431Z,1.92
2023-09-19T14:30:12.219Z,2.60
2023-09-19T14:32:40.244Z,2.72
2023-09-19T14:35:06.974Z,2.20
2023-09-19T14:37:33.921Z,2.72
2023-09-19T14:40:00.657Z,2.88
2023-09-19T14:42:27.503Z,2.47
2023-09-19T14:44:54.215Z,3.15
2023-09-19T14:47:21.112Z,2.70
2023-09-19T14:49:47.957Z,3.42
2023-09-19T14:52:17.261Z,3.33
2023-09-19T14:54:44.175Z,3.03
2023-09-19T14:57:11.259Z,3.05
2023-09-19T14:59:38.033Z,3.22
2023-09-19T15:02:05.227Z,3.10
2023-09-19T15:04:32.475Z,2.95
2023-09-19T15:06:59.475Z,2.60
2023-09-19T15:09:27.265Z,2.50
2023-09-19T15:11:54.651Z,2.97
2023-09-19T15:14:22.076Z,3.13
2023-09-19T15:16:49.547Z,2.47
2023-09-19T15:19:16.523Z,2.65
2023-09-19T15:21:43.432Z,2.63
2023-09-19T15:24:11.128Z,2.70
2023-09-19T15:26:40.393Z,2.72
2023-09-19T15:29:07.516Z,2.90
2023-09-19T15:31:34.357Z,3.85
2023-09-19T15:34:02.453Z,3.53
2023-09-19T15:36:29.449Z,3.00
2023-09-19T15:38:57.973Z,2.90
2023-09-19T15:41:24.851Z,2.92
2023-09-19T15:43:51.710Z,3.45
2023-09-19T15:46:18.648Z,4.00
2023-09-19T15:48:47.002Z,3.50
2023-09-19T15:51:14.493Z,3.05
2023-09-19T15:53:41.260Z,3.92
2023-09-19T15:56:08.075Z,3.38
2023-09-19T15:58:35.891Z,3.67
2023-09-19T16:01:02.684Z,3.53
2023-09-19T16:03:29.418Z,3.72
2023-09-19T16:05:56.504Z,3.17
2023-09-19T16:08:23.277Z,3.25
2023-09-19T16:10:50.233Z,3.17
2023-09-19T16:13:16.985Z,3.67
2023-09-19T16:15:45.573Z,3.63
2023-09-19T16:18:12.427Z,4.10
2023-09-19T16:20:40.569Z,4.00
2023-09-19T16:23:07.611Z,3.17
2023-09-19T16:25:34.449Z,3.70
2023-09-19T16:28:01.215Z,3.28
2023-09-19T16:30:28.005Z,4.50
2023-09-19T16:32:54.804Z,4.22
2023-09-19T16:35:21.728Z,4.30
2023-09-19T16:37:48.586Z,4.05
2023-09-19T16:40:15.471Z,4.70
2023-09-19T16:42:42.667Z,4.18
2023-09-19T16:45:09.455Z,4.40
2023-09-19T16:47:36.181Z,5.00
2023-09-19T16:50:03.066Z,4.82
2023-09-19T16:52:29.998Z,4.47
2023-09-19T16:54:56.819Z,4.38
2023-09-19T16:57:23.688Z,4.57
2023-09-19T16:59:51.375Z,5.20
2023-09-19T17:02:18.275Z,5.30
2023-09-19T17:04:45.222Z,8.10
2023-09-19T17:07:12.486Z,4.68
2023-09-19T17:09:40.146Z,5.20
2023-09-19T17:12:07.013Z,5.18
2023-09-19T17:14:34.048Z,5.00
2023-09-19T17:17:00.812Z,4.68
2023-09-19T17:19:27.804Z,5.20
2023-09-19T17:21:54.571Z,4.40
2023-09-19T17:24:21.339Z,4.78
2023-09-19T17:26:48.136Z,4.82
2023-09-19T17:29:14.986Z,5.07
2023-09-19T17:31:41.802Z,5.03
2023-09-19T17:34:09.223Z,4.82
2023-09-19T17:36:37.099Z,4.25
2023-09-19T17:39:05.850Z,4.32
2023-09-19T17:41:32.681Z,3.80
2023-09-19T17:43:59.627Z,4.00
2023-09-19T17:46:27.174Z,3.75
2023-09-19T17:48:54.422Z,3.80
2023-09-19T17:51:21.235Z,3.92
2023-09-19T17:53:48.109Z,4.05
2023-09-19T17:56:16.157Z,3.58
2023-09-19T17:58:46.146Z,4.45
2023-09-19T18:01:13.546Z,4.22
2023-09-19T18:03:42.459Z,3.90
2023-09-19T18:06:09.380Z,4.65
2023-09-19T18:08:36.235Z,3.90
2023-09-19T18:11:03.109Z,3.60
2023-09-19T18:13:32.461Z,3.75
2023-09-19T18:15:59.537Z,3.78
2023-09-19T18:18:26.713Z,3.80
2023-09-19T18:20:53.663Z,3.03
2023-09-19T18:23:20.489Z,3.25
2023-09-19T18:25:47.522Z,3.40
2023-09-19T18:28:14.594Z,2.92
2023-09-19T18:30:41.417Z,3.50
2023-09-19T18:33:08.255Z,3.40
2023-09-19T18:35:36.281Z,3.50
2023-09-19T18:38:03.033Z,3.65
2023-09-19T18:40:29.870Z,3.72
2023-09-19T18:42:56.637Z,3.72
2023-09-19T18:45:34.758Z,3.17
2023-09-19T18:48:05.969Z,3.30
2023-09-19T18:50:32.785Z,3.63
2023-09-19T18:53:01.388Z,3.22
2023-09-19T18:55:28.183Z,3.60
2023-09-19T18:57:54.972Z,2.97
2023-09-19T19:00:27.083Z,3.45
2023-09-19T19:02:57.394Z,3.17
2023-09-19T19:05:25.122Z,3.65
2023-09-19T19:07:51.967Z,3.20
2023-09-19T19:10:20.950Z,2.75
2023-09-19T19:12:47.773Z,2.88
2023-09-19T19:15:14.632Z,2.83
2023-09-19T19:17:43.480Z,2.80
2023-09-19T19:20:11.366Z,2.92
2023-09-19T19:22:38.298Z,2.78
2023-09-19T19:25:05.916Z,3.00
2023-09-19T19:27:32.745Z,2.83
2023-09-19T19:29:59.480Z,3.00
2023-09-19T19:32:28.184Z,2.90
2023-09-19T19:34:56.656Z,3.55
2023-09-19T19:37:23.911Z,2.92
2023-09-19T19:39:50.701Z,2.50
2023-09-19T19:42:17.631Z,2.67
2023-09-19T19:44:45.391Z,2.38
2023-09-19T19:47:13.580Z,2.05
2023-09-19T19:49:40.685Z,1.90
2023-09-19T19:52:07.535Z,2.50
2023-09-19T19:54:34.280Z,2.47
2023-09-19T19:57:01.943Z,2.13
2023-09-19T19:59:29.004Z,2.72
2023-09-19T20:01:56.707Z,2.58
2023-09-19T20:04:23.451Z,2.03
2023-09-19T20:06:51.480Z,2.80
2023-09-19T20:09:19.937Z,2.67
2023-09-19T20:11:47.002Z,2.20
2023-09-19T20:14:17.085Z,2.60
2023-09-19T20:16:46.754Z,2.90
2023-09-19T20:19:14.211Z,2.97
2023-09-19T20:21:43.832Z,3.47
2023-09-19T20:24:11.876Z,2.65
2023-09-19T20:26:38.895Z,3.25
2023-09-19T20:29:06.571Z,2.75
2023-09-19T20:31:36.416Z,3.08
2023-09-19T20:34:04.487Z,2.58
2023-09-19T20:36:32.258Z,2.33
2023-09-19T20:38:59.009Z,3.05
2023-09-19T20:41:26.207Z,2.85
2023-09-19T20:43:53.128Z,2.72
2023-09-19T20:46:20.018Z,2.53
2023-09-19T20:48:47.320Z,2.78
2023-09-19T20:51:14.989Z,2.97
2023-09-19T20:53:42.104Z,2.70
2023-09-19T20:56:09.025Z,3.30
2023-09-19T20:58:35.798Z,2.83
2023-09-19T21:01:03.250Z,2.97
2023-09-19T21:03:31.970Z,3.00
2023-09-19T21:05:58.805Z,2.72
2023-09-19T21:08:25.574Z,3.13
2023-09-19T21:10:52.436Z,2.33
2023-09-19T21:13:19.453Z,3.00
2023-09-19T21:15:46.223Z,2.67
2023-09-19T21:18:13.222Z,2.58
2023-09-19T21:20:40.122Z,2.67
2023-09-19T21:23:11.075Z,2.17
2023-09-19T21:25:37.854Z,2.67
2023-09-19T21:28:08.350Z,2.92
2023-09-19T21:30:35.200Z,3.05
2023-09-19T21:33:02.126Z,2.95
2023-09-19T21:35:29.683Z,3.10
2023-09-19T21:37:56.533Z,3.05
2023-09-19T21:40:23.422Z,2.75
2023-09-19T21:42:50.121Z,3.50
2023-09-19T21:45:17.570Z,2.65
2023-09-19T21:47:44.408Z,2.72
2023-09-19T21:50:11.183Z,2.72
2023-09-19T21:52:37.972Z,2.67
2023-09-19T21:55:05.937Z,2.28
2023-09-19T21:57:32.862Z,2.97
2023-09-19T21:59:59.661Z,2.90
2023-09-19T22:02:26.915Z,2.90
2023-09-19T22:04:53.892Z,2.92
2023-09-19T22:07:24.575Z,2.72
2023-09-19T22:09:51.428Z,2.50
2023-09-19T22:12:19.054Z,2.38
2023-09-19T22:14:45.788Z,2.38
2023-09-19T22:17:14.545Z,2.80
2023-09-19T22:19:44.961Z,2.70
2023-09-19T22:22:13.028Z,2.65
2023-09-19T22:24:40.597Z,2.63
2023-09-19T22:27:07.436Z,2.83
2023-09-19T22:29:34.760Z,3.00
2023-09-19T22:32:02.010Z,2.60
2023-09-19T22:34:28.759Z,2.45
2023-09-19T22:36:55.892Z,2.30
2023-09-19T22:39:26.723Z,2.50
2023-09-19T22:41:54.849Z,2.45
2023-09-19T22:44:27.285Z,2.75
2023-09-19T22:46:54.744Z,3.22
2023-09-19T22:49:21.770Z,2.55
2023-09-19T22:51:53.389Z,2.72
2023-09-19T22:54:27.413Z,2.60
2023-09-19T22:56:54.636Z,2.45
2023-09-19T22:59:21.908Z,2.30
2023-09-19T23:01:51.072Z,2.20
2023-09-19T23:04:18.431Z,2.60
2023-09-19T23:06:49.619Z,2.50
2023-09-19T23:09:22.328Z,2.30
2023-09-19T23:11:50.560Z,2.45
2023-09-19T23:14:17.378Z,2.50
2023-09-19T23:16:48.360Z,2.63
2023-09-19T23:19:24.282Z,2.60
2023-09-19T23:21:55.593Z,2.15
2023-09-19T23:24:22.492Z,2.47
2023-09-19T23:26:50.558Z,2.20
2023-09-19T23:29:19.574Z,2.60
2023-09-19T23:31:46.616Z,2.63
2023-09-19T23:34:14.058Z,2.70
2023-09-19T23:36:40.917Z,2.63
2023-09-19T23:39:14.743Z,2.42
2023-09-19T23:41:41.637Z,2.42
2023-09-19T23:44:11.653Z,2.75
2023-09-19T23:46:43.737Z,2.72
2023-09-19T23:49:12.036Z,2.75
2023-09-19T23:51:39.349Z,3.17
2023-09-19T23:54:15.014Z,3.03
2023-09-19T23:56:42.533Z,2.67
2023-09-19T23:59:09.587Z,3.10
